Time;durP1;ratioP1;P1;durP2;ratioP2;P2;SDS_P1;SDS_P2;PMS_P1;PMS_P2;Temp;Humidity;BMP_temperature;BMP_pressure;BME280_temperature;BME280_humidity;BME280_pressure;Samples;Min_cycle;Max_cycle;Signal;HPM_P1;HPM_P2
2021/05/31 00:01:48;;;;;;;;;7.50;6.25;;;;;;;;4998314;28;9793;-81
2021/05/31 00:04:16;;;;;;;;;10.00;10.00;;;;;;;;5002934;28;9594;-80
2021/05/31 00:06:49;;;;;;;;;11.50;9.50;;;;;;;;5003650;28;9987;-76
2021/05/31 00:09:16;;;;;;;;;8.00;8.00;;;;;;;;4984856;28;9791;-77
2021/05/31 00:11:43;;;;;;;;;9.75;9.00;;;;;;;;4986692;28;9802;-80
2021/05/31 00:14:09;;;;;;;;;7.75;7.75;;;;;;;;5002546;28;9890;-80
2021/05/31 00:16:36;;;;;;;;;10.50;8.75;;;;;;;;5003844;28;9930;-79
2021/05/31 00:19:04;;;;;;;;;8.00;8.00;;;;;;;;4992715;28;9870;-76
2021/05/31 00:21:31;;;;;;;;;8.25;8.25;;;;;;;;5002757;28;9889;-79
2021/05/31 00:23:59;;;;;;;;;8.00;8.00;;;;;;;;5003340;28;9714;-79
2021/05/31 00:26:26;;;;;;;;;9.00;8.00;;;;;;;;5015146;28;9788;-81
2021/05/31 00:28:54;;;;;;;;;7.00;7.00;;;;;;;;5007499;28;9870;-80
2021/05/31 00:31:21;;;;;;;;;9.00;9.00;;;;;;;;5001950;28;9735;-78
2021/05/31 00:33:48;;;;;;;;;8.50;8.50;;;;;;;;4986046;28;9950;-80
2021/05/31 00:36:16;;;;;;;;;8.00;8.00;;;;;;;;4996761;28;10708;-81
2021/05/31 00:38:43;;;;;;;;;8.25;8.25;;;;;;;;5003597;28;9979;-79
2021/05/31 00:41:11;;;;;;;;;9.00;9.00;;;;;;;;5003638;28;9777;-76
2021/05/31 00:43:38;;;;;;;;;7.75;7.75;;;;;;;;5001791;28;9913;-80
2021/05/31 00:46:07;;;;;;;;;10.25;10.25;;;;;;;;5005674;28;9886;-80
2021/05/31 00:48:35;;;;;;;;;8.25;7.75;;;;;;;;5006166;28;9986;-79
2021/05/31 00:51:04;;;;;;;;;9.50;9.00;;;;;;;;5007151;28;9878;-78
2021/05/31 00:53:31;;;;;;;;;10.00;10.00;;;;;;;;5006017;28;10124;-80
2021/05/31 00:55:59;;;;;;;;;8.00;8.00;;;;;;;;5007261;28;10072;-81
2021/05/31 00:58:28;;;;;;;;;8.00;8.00;;;;;;;;5006514;28;10089;-77
2021/05/31 01:00:56;;;;;;;;;5.25;5.25;;;;;;;;5005704;28;10126;-78
2021/05/31 01:03:23;;;;;;;;;12.00;9.25;;;;;;;;5007857;28;10206;-81
2021/05/31 01:05:50;;;;;;;;;9.25;9.00;;;;;;;;5005708;28;10277;-77
2021/05/31 01:08:19;;;;;;;;;12.50;10.00;;;;;;;;5002628;28;10397;-77
2021/05/31 01:10:51;;;;;;;;;9.00;9.00;;;;;;;;5003303;28;10208;-79
2021/05/31 01:13:20;;;;;;;;;13.00;10.00;;;;;;;;5007290;28;10472;-79
2021/05/31 01:15:52;;;;;;;;;9.00;9.00;;;;;;;;5005860;28;10426;-77
2021/05/31 01:18:21;;;;;;;;;8.75;8.75;;;;;;;;5005946;28;10473;-76
2021/05/31 01:20:58;;;;;;;;;8.00;8.00;;;;;;;;5007590;28;10124;-79
2021/05/31 01:23:29;;;;;;;;;8.00;8.00;;;;;;;;5005615;28;10285;-81
2021/05/31 01:26:03;;;;;;;;;9.50;9.50;;;;;;;;4989915;28;10314;-79
2021/05/31 01:28:56;;;;;;;;;10.00;10.00;;;;;;;;5005901;28;10375;-77
2021/05/31 01:31:26;;;;;;;;;8.50;8.50;;;;;;;;4998607;28;10103;-80
2021/05/31 01:33:55;;;;;;;;;12.50;12.25;;;;;;;;5006773;28;10219;-78
2021/05/31 01:36:23;;;;;;;;;9.25;9.25;;;;;;;;4988332;28;10373;-80
2021/05/31 01:38:52;;;;;;;;;11.00;9.25;;;;;;;;5006813;28;10362;-81
2021/05/31 01:41:20;;;;;;;;;9.25;9.25;;;;;;;;5006213;28;11109;-82
2021/05/31 01:43:48;;;;;;;;;10.50;8.50;;;;;;;;5014020;28;10344;-82
2021/05/31 01:46:16;;;;;;;;;7.50;7.50;;;;;;;;5016314;28;10388;-80
2021/05/31 01:48:44;;;;;;;;;9.00;8.75;;;;;;;;5005875;28;10370;-79
2021/05/31 01:51:11;;;;;;;;;7.00;7.00;;;;;;;;5007412;28;10367;-79
2021/05/31 01:53:39;;;;;;;;;9.00;7.00;;;;;;;;5004494;28;10304;-75
2021/05/31 01:56:06;;;;;;;;;8.50;8.50;;;;;;;;5005729;28;10209;-80
2021/05/31 01:58:33;;;;;;;;;12.50;8.00;;;;;;;;5009683;28;10173;-82
2021/05/31 02:01:00;;;;;;;;;9.00;9.00;;;;;;;;5001658;28;10339;-79
2021/05/31 02:03:29;;;;;;;;;8.75;8.75;;;;;;;;5006217;28;10501;-78
2021/05/31 02:05:56;;;;;;;;;8.00;8.00;;;;;;;;5005022;28;10516;-81
2021/05/31 02:08:23;;;;;;;;;9.00;9.00;;;;;;;;5006165;28;10595;-77
2021/05/31 02:10:50;;;;;;;;;8.50;8.50;;;;;;;;5004798;28;10526;-76
2021/05/31 02:13:17;;;;;;;;;9.00;7.50;;;;;;;;5006146;28;10412;-81
2021/05/31 02:15:51;;;;;;;;;12.25;9.50;;;;;;;;5008072;28;10412;-80
2021/05/31 02:18:24;;;;;;;;;8.75;8.75;;;;;;;;5005690;28;10354;-78
2021/05/31 02:20:55;;;;;;;;;8.25;8.25;;;;;;;;5005417;28;10323;-82
2021/05/31 02:23:23;;;;;;;;;14.75;10.75;;;;;;;;5004917;28;10532;-78
2021/05/31 02:25:51;;;;;;;;;10.25;8.50;;;;;;;;5005770;28;10454;-82
2021/05/31 02:28:17;;;;;;;;;13.75;7.75;;;;;;;;5003963;28;10344;-82
2021/05/31 02:30:44;;;;;;;;;9.50;9.50;;;;;;;;5004202;28;10421;-76
2021/05/31 02:33:12;;;;;;;;;10.00;9.00;;;;;;;;5005306;28;10419;-82
2021/05/31 02:35:40;;;;;;;;;10.75;10.75;;;;;;;;5000154;28;10440;-80
2021/05/31 02:38:08;;;;;;;;;7.50;7.50;;;;;;;;5005382;28;10510;-83
2021/05/31 02:40:37;;;;;;;;;8.00;7.50;;;;;;;;5005159;28;10282;-81
2021/05/31 02:43:05;;;;;;;;;9.25;9.25;;;;;;;;5006110;28;10333;-77
2021/05/31 02:45:33;;;;;;;;;9.00;9.00;;;;;;;;5004194;28;10386;-82
2021/05/31 02:48:00;;;;;;;;;10.00;10.00;;;;;;;;5005465;28;10257;-76
2021/05/31 02:50:28;;;;;;;;;14.00;10.50;;;;;;;;5010308;28;10431;-76
2021/05/31 02:52:55;;;;;;;;;12.75;12.00;;;;;;;;5006093;28;10504;-76
2021/05/31 02:55:26;;;;;;;;;12.25;11.50;;;;;;;;5006279;28;11083;-80
2021/05/31 02:57:54;;;;;;;;;9.50;8.00;;;;;;;;5004623;28;10277;-81
2021/05/31 03:00:22;;;;;;;;;9.50;9.50;;;;;;;;5004216;28;10170;-80
2021/05/31 03:02:49;;;;;;;;;8.00;8.00;;;;;;;;5004955;28;10035;-79
2021/05/31 03:05:18;;;;;;;;;9.50;8.50;;;;;;;;5005190;28;10141;-74
2021/05/31 03:07:45;;;;;;;;;9.75;9.75;;;;;;;;5002659;28;10059;-75
2021/05/31 03:10:13;;;;;;;;;8.50;8.50;;;;;;;;5005045;28;9972;-74
2021/05/31 03:12:42;;;;;;;;;9.00;7.00;;;;;;;;5004224;28;9815;-82
2021/05/31 03:15:11;;;;;;;;;10.75;7.75;;;;;;;;5003975;28;9879;-78
2021/05/31 03:17:38;;;;;;;;;5.75;5.75;;;;;;;;5004892;28;9887;-76
2021/05/31 03:20:06;;;;;;;;;11.00;8.00;;;;;;;;5003122;28;9916;-78
2021/05/31 03:22:33;;;;;;;;;7.00;7.00;;;;;;;;5004385;28;9795;-74
2021/05/31 03:25:00;;;;;;;;;11.50;8.25;;;;;;;;5003541;28;9645;-82
2021/05/31 03:27:27;;;;;;;;;9.00;8.25;;;;;;;;5007937;28;9879;-83
2021/05/31 03:29:55;;;;;;;;;7.00;7.00;;;;;;;;5003689;28;9900;-73
2021/05/31 03:32:22;;;;;;;;;13.50;8.00;;;;;;;;5003765;28;9864;-76
2021/05/31 03:34:48;;;;;;;;;9.00;9.00;;;;;;;;5004052;28;9850;-81
2021/05/31 03:37:15;;;;;;;;;7.00;7.00;;;;;;;;5002840;28;9949;-78
2021/05/31 03:39:42;;;;;;;;;8.75;8.75;;;;;;;;5004643;28;9899;-76
2021/05/31 03:42:10;;;;;;;;;8.50;8.50;;;;;;;;5004209;28;9953;-76
2021/05/31 03:44:37;;;;;;;;;7.75;7.75;;;;;;;;5003956;28;9825;-81
2021/05/31 03:47:05;;;;;;;;;8.75;8.75;;;;;;;;5003605;28;9813;-82
2021/05/31 03:49:32;;;;;;;;;8.75;8.75;;;;;;;;5005968;28;9954;-82
2021/05/31 03:51:59;;;;;;;;;8.75;8.75;;;;;;;;4998616;28;9867;-75
2021/05/31 03:54:26;;;;;;;;;7.25;7.25;;;;;;;;5002799;28;9895;-77
2021/05/31 03:56:53;;;;;;;;;8.25;7.00;;;;;;;;5002157;28;10019;-79
2021/05/31 03:59:20;;;;;;;;;8.50;8.50;;;;;;;;5000535;28;10579;-77
2021/05/31 04:01:47;;;;;;;;;9.25;8.00;;;;;;;;5003827;28;10585;-77
2021/05/31 04:04:16;;;;;;;;;7.00;7.00;;;;;;;;5002374;28;10006;-74
2021/05/31 04:07:00;;;;;;;;;7.50;7.50;;;;;;;;5000861;28;10081;-74
2021/05/31 04:12:12;;;;;;;;;8.00;8.00;;;;;;;;5004491;28;10012;-85
2021/05/31 04:14:39;;;;;;;;;8.25;8.25;;;;;;;;5004721;28;9817;-84
2021/05/31 04:17:06;;;;;;;;;6.50;6.50;;;;;;;;5003272;28;9874;-85
2021/05/31 04:19:34;;;;;;;;;8.75;8.75;;;;;;;;5003000;28;9951;-79
2021/05/31 04:22:02;;;;;;;;;2.00;2.00;;;;;;;;5002484;28;9966;-79
2021/05/31 04:24:29;;;;;;;;;7.00;5.50;;;;;;;;5003133;28;9957;-87
2021/05/31 04:26:56;;;;;;;;;9.25;7.75;;;;;;;;5003614;28;9788;-82
2021/05/31 04:29:23;;;;;;;;;7.75;7.75;;;;;;;;5006392;28;10015;-84
2021/05/31 04:31:50;;;;;;;;;7.25;7.25;;;;;;;;5002128;28;9845;-86
2021/05/31 04:34:17;;;;;;;;;8.25;7.00;;;;;;;;4993196;28;9969;-81
2021/05/31 04:36:45;;;;;;;;;7.00;7.00;;;;;;;;5004405;28;9914;-83
2021/05/31 04:39:12;;;;;;;;;7.50;7.50;;;;;;;;5003125;28;9902;-80
2021/05/31 04:41:39;;;;;;;;;6.50;6.50;;;;;;;;5004782;28;9900;-82
2021/05/31 04:44:07;;;;;;;;;8.00;8.00;;;;;;;;5002595;28;9930;-83
2021/05/31 04:46:34;;;;;;;;;7.00;7.00;;;;;;;;5002650;28;10661;-82
2021/05/31 04:49:03;;;;;;;;;7.25;6.75;;;;;;;;4987177;28;9844;-81
2021/05/31 04:51:30;;;;;;;;;7.00;7.00;;;;;;;;5002568;28;10608;-84
2021/05/31 04:53:59;;;;;;;;;7.25;7.25;;;;;;;;5004797;28;10088;-85
2021/05/31 04:56:27;;;;;;;;;9.75;8.50;;;;;;;;5003277;28;9857;-78
2021/05/31 04:58:55;;;;;;;;;8.25;8.00;;;;;;;;5003781;28;9820;-79
2021/05/31 05:01:22;;;;;;;;;12.00;12.00;;;;;;;;5002004;28;9608;-83
2021/05/31 05:03:49;;;;;;;;;35.00;31.00;;;;;;;;4998780;28;10135;-79
2021/05/31 05:06:16;;;;;;;;;41.75;35.75;;;;;;;;5002135;28;10458;-79
2021/05/31 05:08:44;;;;;;;;;37.75;36.75;;;;;;;;4984274;28;10472;-77
2021/05/31 05:11:13;;;;;;;;;44.25;38.50;;;;;;;;5002630;28;10724;-83
2021/05/31 05:13:40;;;;;;;;;39.50;37.00;;;;;;;;4998900;28;12287;-77
2021/05/31 05:16:06;;;;;;;;;38.25;36.00;;;;;;;;5005875;28;10957;-83
2021/05/31 05:18:33;;;;;;;;;36.25;33.75;;;;;;;;5002426;28;10721;-85
2021/05/31 05:21:00;;;;;;;;;37.50;32.50;;;;;;;;4986168;28;10632;-79
2021/05/31 05:23:27;;;;;;;;;33.75;27.50;;;;;;;;4985893;28;10558;-82
2021/05/31 05:25:54;;;;;;;;;27.75;27.50;;;;;;;;5001780;28;11065;-80
2021/05/31 05:28:22;;;;;;;;;26.00;25.25;;;;;;;;5011008;28;10267;-87
2021/05/31 05:30:51;;;;;;;;;15.00;12.25;;;;;;;;5000323;28;10064;-83
2021/05/31 05:33:18;;;;;;;;;20.50;17.75;;;;;;;;4990428;28;9948;-78
2021/05/31 05:35:50;;;;;;;;;20.50;20.00;;;;;;;;5005790;28;9846;-78
2021/05/31 05:38:35;;;;;;;;;18.25;17.00;;;;;;;;4987344;28;9812;-78
2021/05/31 05:46:44;;;;;;;;;11.00;11.00;;;;;;;;5003226;28;9484;-79
2021/05/31 05:49:11;;;;;;;;;9.00;9.00;;;;;;;;4988399;28;9554;-80
2021/05/31 05:51:38;;;;;;;;;11.67;11.67;;;;;;;;4988678;28;9517;-83
2021/05/31 05:54:06;;;;;;;;;6.00;6.00;;;;;;;;5005802;28;9333;-84
2021/05/31 05:56:33;;;;;;;;;10.00;8.33;;;;;;;;4989292;28;9239;-85
2021/05/31 05:59:04;;;;;;;;;6.00;6.00;;;;;;;;5006390;28;9204;-84
2021/05/31 06:01:33;;;;;;;;;6.00;6.00;;;;;;;;4995917;28;9060;-85
2021/05/31 06:04:00;;;;;;;;;9.00;8.00;;;;;;;;5004410;28;9188;-80
2021/05/31 06:06:27;;;;;;;;;10.33;9.00;;;;;;;;5003486;28;9132;-81
2021/05/31 06:08:54;;;;;;;;;5.67;5.67;;;;;;;;4987902;28;9121;-81
2021/05/31 06:11:21;;;;;;;;;6.00;6.00;;;;;;;;4989994;28;9090;-81
2021/05/31 06:13:51;;;;;;;;;7.00;5.00;;;;;;;;5005723;28;9054;-82
2021/05/31 06:16:19;;;;;;;;;5.00;5.00;;;;;;;;5007209;28;8933;-81
2021/05/31 06:18:47;;;;;;;;;6.25;6.00;;;;;;;;5003010;28;8937;-78
2021/05/31 06:21:14;;;;;;;;;6.00;5.00;;;;;;;;4988125;28;9045;-80
2021/05/31 06:23:41;;;;;;;;;5.75;5.75;;;;;;;;4986519;28;8961;-79
2021/05/31 06:26:08;;;;;;;;;6.00;6.00;;;;;;;;5010096;28;8944;-78
2021/05/31 06:28:34;;;;;;;;;6.00;6.00;;;;;;;;4993408;28;8952;-78
2021/05/31 06:31:01;;;;;;;;;7.00;6.50;;;;;;;;5004581;28;8894;-78
2021/05/31 06:33:30;;;;;;;;;8.00;6.00;;;;;;;;4987626;28;8937;-78
2021/05/31 06:35:59;;;;;;;;;9.75;9.75;;;;;;;;5004141;28;8890;-78
2021/05/31 06:38:26;;;;;;;;;6.00;6.00;;;;;;;;5005616;28;8854;-78
2021/05/31 06:40:52;;;;;;;;;5.00;5.00;;;;;;;;5003707;28;8883;-77
2021/05/31 06:43:19;;;;;;;;;6.75;6.75;;;;;;;;4987407;28;8891;-77
2021/05/31 06:45:46;;;;;;;;;8.00;8.00;;;;;;;;5004611;28;9581;-79
2021/05/31 06:48:14;;;;;;;;;5.25;5.25;;;;;;;;5004145;28;8882;-80
2021/05/31 06:50:43;;;;;;;;;6.00;6.00;;;;;;;;4988363;28;8877;-77
2021/05/31 06:53:10;;;;;;;;;6.00;6.00;;;;;;;;5003436;28;8901;-77
2021/05/31 06:55:37;;;;;;;;;6.25;4.25;;;;;;;;5007893;28;8874;-77
2021/05/31 06:58:04;;;;;;;;;6.00;6.00;;;;;;;;4986770;28;8890;-76
2021/05/31 07:00:32;;;;;;;;;5.00;5.00;;;;;;;;5004852;28;8809;-76
2021/05/31 07:02:58;;;;;;;;;5.25;5.25;;;;;;;;5002941;28;9017;-77
2021/05/31 07:05:25;;;;;;;;;6.00;5.75;;;;;;;;5004296;28;8871;-78
2021/05/31 07:07:54;;;;;;;;;4.50;4.25;;;;;;;;5004102;28;8881;-78
2021/05/31 07:10:24;;;;;;;;;6.25;6.25;;;;;;;;5003485;28;9032;-74
2021/05/31 07:12:51;;;;;;;;;8.00;4.00;;;;;;;;5004322;28;8859;-73
2021/05/31 07:15:19;;;;;;;;;5.25;5.00;;;;;;;;5002794;28;8965;-72
2021/05/31 07:17:47;;;;;;;;;5.00;5.00;;;;;;;;5004549;28;8878;-74
2021/05/31 07:20:15;;;;;;;;;6.75;6.75;;;;;;;;5002564;28;8875;-73
2021/05/31 07:22:44;;;;;;;;;7.00;7.00;;;;;;;;5004465;28;8909;-72
2021/05/31 07:25:15;;;;;;;;;6.25;6.25;;;;;;;;5003347;28;8902;-72
2021/05/31 07:27:42;;;;;;;;;4.25;4.25;;;;;;;;5003601;28;8892;-73
2021/05/31 07:30:10;;;;;;;;;9.75;6.00;;;;;;;;5004105;28;8869;-73
2021/05/31 07:32:39;;;;;;;;;7.00;7.00;;;;;;;;5002539;28;8906;-72
2021/05/31 07:35:07;;;;;;;;;5.00;4.25;;;;;;;;4999185;28;8937;-72
2021/05/31 07:37:34;;;;;;;;;3.75;3.50;;;;;;;;5002861;28;8866;-72
2021/05/31 07:40:01;;;;;;;;;5.00;5.00;;;;;;;;5004088;28;8914;-74
2021/05/31 07:42:30;;;;;;;;;6.50;5.00;;;;;;;;5003798;28;8874;-74
2021/05/31 07:44:57;;;;;;;;;4.25;4.25;;;;;;;;4987582;28;8871;-74
2021/05/31 07:47:24;;;;;;;;;4.50;4.50;;;;;;;;5004163;28;8917;-74
2021/05/31 07:49:51;;;;;;;;;5.75;5.75;;;;;;;;5008034;28;8897;-72
2021/05/31 07:52:24;;;;;;;;;4.25;4.25;;;;;;;;5003970;28;9660;-75
2021/05/31 07:54:51;;;;;;;;;8.50;4.75;;;;;;;;5002465;28;8875;-74
2021/05/31 07:57:18;;;;;;;;;7.00;5.75;;;;;;;;5003783;28;8911;-73
2021/05/31 07:59:47;;;;;;;;;8.75;7.00;;;;;;;;5003087;28;9572;-73
2021/05/31 08:02:14;;;;;;;;;7.00;7.00;;;;;;;;5002963;28;9005;-74
2021/05/31 08:04:41;;;;;;;;;4.20;4.20;;;;;;;;5003019;28;8965;-75
2021/05/31 08:07:09;;;;;;;;;2.20;2.20;;;;;;;;5005183;28;8889;-74
2021/05/31 08:09:36;;;;;;;;;5.20;5.20;;;;;;;;5004299;28;8871;-75
2021/05/31 08:12:05;;;;;;;;;5.00;5.00;;;;;;;;5001917;28;8877;-74
2021/05/31 08:14:32;;;;;;;;;3.60;3.60;;;;;;;;5002138;28;8875;-74
2021/05/31 08:17:01;;;;;;;;;3.00;3.00;;;;;;;;5002998;28;8862;-74
2021/05/31 08:19:30;;;;;;;;;3.00;3.00;;;;;;;;5003499;28;8858;-75
2021/05/31 08:21:57;;;;;;;;;5.20;4.00;;;;;;;;5003715;28;8867;-75
2021/05/31 08:24:24;;;;;;;;;6.00;6.00;;;;;;;;5002597;28;8835;-73
2021/05/31 08:26:51;;;;;;;;;6.00;6.00;;;;;;;;5003794;28;9633;-74
2021/05/31 08:29:19;;;;;;;;;4.60;4.60;;;;;;;;5005641;28;8890;-74
2021/05/31 08:31:47;;;;;;;;;5.80;5.80;;;;;;;;4988061;28;8843;-74
2021/05/31 08:34:15;;;;;;;;;6.00;4.40;;;;;;;;5003187;28;8905;-78
2021/05/31 08:36:44;;;;;;;;;7.60;6.00;;;;;;;;5002206;28;8894;-76
2021/05/31 08:39:11;;;;;;;;;3.80;3.80;;;;;;;;5003163;28;8869;-77
2021/05/31 08:41:39;;;;;;;;;5.80;5.80;;;;;;;;5000988;28;8870;-76
2021/05/31 08:44:07;;;;;;;;;5.40;4.40;;;;;;;;5003925;28;8862;-77
2021/05/31 08:46:36;;;;;;;;;4.00;4.00;;;;;;;;5000506;28;8916;-77
2021/05/31 08:49:04;;;;;;;;;7.40;5.60;;;;;;;;4993514;28;9005;-77
2021/05/31 08:51:33;;;;;;;;;5.40;5.40;;;;;;;;5002526;28;8863;-78
2021/05/31 08:54:00;;;;;;;;;3.00;3.00;;;;;;;;4986671;28;8859;-76
2021/05/31 08:56:27;;;;;;;;;4.00;4.00;;;;;;;;5003344;28;8863;-76
2021/05/31 08:58:54;;;;;;;;;5.60;5.60;;;;;;;;5003026;28;8863;-77
2021/05/31 09:01:24;;;;;;;;;4.60;4.60;;;;;;;;5003016;28;8831;-77
2021/05/31 09:03:51;;;;;;;;;4.80;4.80;;;;;;;;5002733;28;8862;-78
2021/05/31 09:06:18;;;;;;;;;5.80;5.80;;;;;;;;5005214;28;8863;-77
2021/05/31 09:08:58;;;;;;;;;6.00;6.00;;;;;;;;5006852;28;8878;-74
2021/05/31 09:11:26;;;;;;;;;5.00;5.00;;;;;;;;5006716;28;8866;-77
2021/05/31 09:13:53;;;;;;;;;7.00;5.20;;;;;;;;5007325;28;8862;-78
2021/05/31 09:16:22;;;;;;;;;3.20;2.20;;;;;;;;5007113;28;8905;-78
2021/05/31 09:18:50;;;;;;;;;5.80;5.80;;;;;;;;5007770;28;8850;-78
2021/05/31 09:21:19;;;;;;;;;4.40;4.40;;;;;;;;5006287;28;8921;-76
2021/05/31 09:23:47;;;;;;;;;5.40;5.40;;;;;;;;5007467;28;9779;-78
2021/05/31 09:26:16;;;;;;;;;4.60;4.60;;;;;;;;4995099;28;8858;-77
2021/05/31 09:28:56;;;;;;;;;1.60;1.60;;;;;;;;5013853;28;9012;-77
2021/05/31 09:31:23;;;;;;;;;4.80;4.80;;;;;;;;5005993;28;9061;-78
2021/05/31 09:34:00;;;;;;;;;2.60;2.60;;;;;;;;5006377;28;8855;-77
2021/05/31 09:36:28;;;;;;;;;3.00;3.00;;;;;;;;5005709;28;8984;-79
2021/05/31 09:38:56;;;;;;;;;3.80;3.80;;;;;;;;5003615;28;8940;-77
2021/05/31 09:41:36;;;;;;;;;4.00;4.00;;;;;;;;5006525;28;8863;-78
2021/05/31 09:44:05;;;;;;;;;4.00;4.00;;;;;;;;5000406;28;8869;-78
2021/05/31 09:46:36;;;;;;;;;4.80;4.00;;;;;;;;5006218;28;8898;-79
2021/05/31 09:49:11;;;;;;;;;4.00;4.00;;;;;;;;5006515;28;8883;-79
2021/05/31 09:51:50;;;;;;;;;4.60;4.20;;;;;;;;4989943;28;8871;-77
2021/05/31 09:54:29;;;;;;;;;4.60;4.60;;;;;;;;5007020;28;8892;-78
2021/05/31 09:56:58;;;;;;;;;3.40;3.40;;;;;;;;5006266;28;8861;-78
2021/05/31 09:59:28;;;;;;;;;2.80;2.80;;;;;;;;5005932;28;8881;-78
2021/05/31 10:02:00;;;;;;;;;3.40;3.40;;;;;;;;5006558;28;8815;-78
2021/05/31 10:04:42;;;;;;;;;4.80;4.80;;;;;;;;5005060;28;8890;-76
2021/05/31 10:07:18;;;;;;;;;2.60;2.60;;;;;;;;5004048;28;8979;-75
2021/05/31 10:09:45;;;;;;;;;3.00;3.00;;;;;;;;5005896;28;8911;-77
2021/05/31 10:12:14;;;;;;;;;3.80;3.80;;;;;;;;5006498;28;8904;-78
2021/05/31 10:14:43;;;;;;;;;4.00;4.00;;;;;;;;5006094;28;8839;-76
2021/05/31 10:17:12;;;;;;;;;2.60;2.60;;;;;;;;5004462;28;9687;-78
2021/05/31 10:19:39;;;;;;;;;6.40;4.00;;;;;;;;4974993;28;8862;-78
2021/05/31 10:22:06;;;;;;;;;4.60;4.60;;;;;;;;5005248;28;8871;-78
2021/05/31 10:24:34;;;;;;;;;7.20;4.40;;;;;;;;4988659;28;8891;-78
2021/05/31 10:27:03;;;;;;;;;3.00;3.00;;;;;;;;5005561;28;8878;-77
2021/05/31 10:29:31;;;;;;;;;4.00;4.00;;;;;;;;5005935;28;8920;-79
2021/05/31 10:32:07;;;;;;;;;6.80;5.60;;;;;;;;5004938;28;8831;-78
2021/05/31 10:34:44;;;;;;;;;3.80;3.80;;;;;;;;5004746;28;8843;-76
2021/05/31 10:37:21;;;;;;;;;2.00;2.00;;;;;;;;5005705;28;9656;-78
2021/05/31 10:39:59;;;;;;;;;4.80;4.00;;;;;;;;5004806;28;8972;-78
2021/05/31 10:42:26;;;;;;;;;3.80;3.80;;;;;;;;4994139;28;9001;-77
2021/05/31 10:44:55;;;;;;;;;5.00;3.80;;;;;;;;5005082;28;8847;-79
2021/05/31 10:47:28;;;;;;;;;4.00;4.00;;;;;;;;5006988;28;8878;-75
2021/05/31 10:49:55;;;;;;;;;3.60;3.60;;;;;;;;5005105;28;8878;-79
2021/05/31 10:52:23;;;;;;;;;5.20;5.20;;;;;;;;5008910;28;8875;-80
2021/05/31 10:54:50;;;;;;;;;4.00;4.00;;;;;;;;5004608;28;8912;-78
2021/05/31 10:57:17;;;;;;;;;4.60;4.60;;;;;;;;5003566;28;8925;-77
2021/05/31 10:59:48;;;;;;;;;4.00;3.80;;;;;;;;5004683;28;8991;-79
2021/05/31 11:02:32;;;;;;;;;3.80;3.80;;;;;;;;5003702;28;8902;-80
2021/05/31 11:05:07;;;;;;;;;4.20;4.20;;;;;;;;5005171;28;8896;-79
2021/05/31 11:07:34;;;;;;;;;3.00;3.00;;;;;;;;5011639;28;8903;-78
2021/05/31 11:10:01;;;;;;;;;5.00;3.40;;;;;;;;5002976;28;8875;-79
2021/05/31 11:12:29;;;;;;;;;4.80;4.80;;;;;;;;5003876;28;8998;-81
2021/05/31 11:15:07;;;;;;;;;3.80;3.80;;;;;;;;5002795;28;9640;-79
2021/05/31 11:17:47;;;;;;;;;3.80;3.80;;;;;;;;5004010;28;8941;-80
2021/05/31 11:20:15;;;;;;;;;3.00;3.00;;;;;;;;5003387;28;9699;-80
2021/05/31 11:22:52;;;;;;;;;3.20;3.20;;;;;;;;5003701;28;8985;-79
2021/05/31 11:25:21;;;;;;;;;3.20;3.20;;;;;;;;5006424;28;8947;-81
2021/05/31 11:27:53;;;;;;;;;6.20;3.80;;;;;;;;5008236;28;8887;-85
2021/05/31 11:30:22;;;;;;;;;2.60;2.60;;;;;;;;5001520;28;9698;-84
2021/05/31 11:32:51;;;;;;;;;3.60;3.60;;;;;;;;5004467;28;9703;-84
2021/05/31 11:35:18;;;;;;;;;5.80;4.00;;;;;;;;5004083;28;8890;-80
2021/05/31 11:37:47;;;;;;;;;2.60;2.60;;;;;;;;5006224;28;8882;-80
2021/05/31 11:40:21;;;;;;;;;5.00;3.60;;;;;;;;5002808;28;8957;-81
2021/05/31 11:42:49;;;;;;;;;2.80;2.80;;;;;;;;5005038;28;8890;-86
2021/05/31 11:45:19;;;;;;;;;3.00;3.00;;;;;;;;5005892;28;8891;-77
2021/05/31 11:47:46;;;;;;;;;3.20;3.20;;;;;;;;4998215;28;8890;-81
2021/05/31 11:50:22;;;;;;;;;4.00;4.00;;;;;;;;5005683;28;8870;-84
2021/05/31 11:52:49;;;;;;;;;3.20;2.80;;;;;;;;5001169;28;8879;-85
2021/05/31 11:55:18;;;;;;;;;5.40;2.40;;;;;;;;5016144;28;8871;-81
2021/05/31 11:57:45;;;;;;;;;2.40;2.40;;;;;;;;4999529;28;8914;-84
2021/05/31 12:00:18;;;;;;;;;3.40;2.20;;;;;;;;4991889;28;8886;-82
2021/05/31 12:02:45;;;;;;;;;3.00;3.00;;;;;;;;4987136;28;8899;-84
2021/05/31 12:05:14;;;;;;;;;2.20;2.20;;;;;;;;5004477;28;8944;-85
2021/05/31 12:07:43;;;;;;;;;2.00;2.00;;;;;;;;5004066;28;8962;-85
2021/05/31 12:10:12;;;;;;;;;1.40;1.40;;;;;;;;5004567;28;9447;-84
2021/05/31 12:12:41;;;;;;;;;2.00;2.00;;;;;;;;5004648;28;8985;-86
2021/05/31 12:15:12;;;;;;;;;1.20;1.20;;;;;;;;4991827;28;8882;-81
2021/05/31 12:17:40;;;;;;;;;1.40;1.40;;;;;;;;4987935;28;8863;-81
2021/05/31 12:20:08;;;;;;;;;2.60;1.00;;;;;;;;5004575;28;8842;-86
2021/05/31 12:22:38;;;;;;;;;1.00;1.00;;;;;;;;5003948;28;8863;-84
2021/05/31 12:25:09;;;;;;;;;3.00;3.00;;;;;;;;4987969;28;8854;-82
2021/05/31 12:27:40;;;;;;;;;2.00;2.00;;;;;;;;4986442;28;8863;-84
2021/05/31 12:30:09;;;;;;;;;3.00;3.00;;;;;;;;5006742;28;8898;-82
2021/05/31 12:32:36;;;;;;;;;2.20;2.20;;;;;;;;5003242;28;8882;-81
2021/05/31 12:35:05;;;;;;;;;1.60;1.60;;;;;;;;5004514;28;9021;-81
2021/05/31 12:37:33;;;;;;;;;2.40;2.00;;;;;;;;5003433;28;8898;-86
2021/05/31 12:40:07;;;;;;;;;1.80;1.80;;;;;;;;5003364;28;8886;-85
2021/05/31 12:42:35;;;;;;;;;1.80;1.80;;;;;;;;5007713;28;8866;-88
2021/05/31 12:45:04;;;;;;;;;2.80;2.80;;;;;;;;5006994;28;8879;-80
2021/05/31 12:47:36;;;;;;;;;1.00;1.00;;;;;;;;5009244;28;8850;-86
2021/05/31 12:50:07;;;;;;;;;2.00;2.00;;;;;;;;4995764;28;8971;-84
2021/05/31 12:52:39;;;;;;;;;1.00;1.00;;;;;;;;4991123;28;8885;-84
2021/05/31 12:55:10;;;;;;;;;2.00;2.00;;;;;;;;5007853;28;8948;-77
2021/05/31 12:57:38;;;;;;;;;3.60;3.60;;;;;;;;5007208;28;8875;-85
2021/05/31 13:00:12;;;;;;;;;2.00;2.00;;;;;;;;5007893;28;8898;-87
2021/05/31 13:02:43;;;;;;;;;3.00;3.00;;;;;;;;5007417;28;9001;-85
2021/05/31 13:05:12;;;;;;;;;2.40;2.40;;;;;;;;5007494;28;8870;-87
2021/05/31 13:07:41;;;;;;;;;3.00;3.00;;;;;;;;5006543;28;8875;-83
2021/05/31 13:10:14;;;;;;;;;3.20;2.00;;;;;;;;5008122;28;8863;-83
2021/05/31 13:12:52;;;;;;;;;2.20;2.20;;;;;;;;5008036;28;8924;-85
2021/05/31 13:15:20;;;;;;;;;1.00;1.00;;;;;;;;5006699;28;8989;-82
2021/05/31 13:17:51;;;;;;;;;2.40;2.40;;;;;;;;5007843;28;8889;-87
2021/05/31 13:20:19;;;;;;;;;1.00;1.00;;;;;;;;5004475;28;8886;-81
2021/05/31 13:22:57;;;;;;;;;2.00;2.00;;;;;;;;5003381;28;8929;-83
2021/05/31 13:25:25;;;;;;;;;2.00;2.00;;;;;;;;5005903;28;8962;-88
2021/05/31 13:27:52;;;;;;;;;1.20;1.20;;;;;;;;5010056;28;8968;-85
2021/05/31 13:30:21;;;;;;;;;1.00;1.00;;;;;;;;5010995;28;8850;-85
2021/05/31 13:32:56;;;;;;;;;2.00;2.00;;;;;;;;5006459;28;8972;-81
2021/05/31 13:35:24;;;;;;;;;1.00;1.00;;;;;;;;5006976;28;8886;-81
2021/05/31 13:37:52;;;;;;;;;2.60;2.60;;;;;;;;4988671;28;8874;-81
2021/05/31 13:40:29;;;;;;;;;2.20;2.20;;;;;;;;5007556;28;8882;-82
2021/05/31 13:43:02;;;;;;;;;3.80;2.00;;;;;;;;5006818;28;8988;-84
2021/05/31 13:45:30;;;;;;;;;2.00;2.00;;;;;;;;5004935;28;8870;-83
2021/05/31 13:47:56;;;;;;;;;0.40;0.40;;;;;;;;4991230;28;9808;-82
2021/05/31 13:50:27;;;;;;;;;2.00;2.00;;;;;;;;5006764;28;8893;-82
2021/05/31 13:52:54;;;;;;;;;1.00;1.00;;;;;;;;5006681;28;8859;-88
2021/05/31 13:55:21;;;;;;;;;2.00;2.00;;;;;;;;5006093;28;8993;-84
2021/05/31 13:57:50;;;;;;;;;1.60;1.60;;;;;;;;4989356;28;8916;-89
2021/05/31 14:00:18;;;;;;;;;1.40;1.40;;;;;;;;5012368;28;8860;-85
2021/05/31 14:02:48;;;;;;;;;2.00;2.00;;;;;;;;4993827;28;8903;-82
2021/05/31 14:05:15;;;;;;;;;1.00;1.00;;;;;;;;5006014;28;8878;-87
2021/05/31 14:07:42;;;;;;;;;2.00;2.00;;;;;;;;4988346;28;8867;-83
2021/05/31 14:10:11;;;;;;;;;1.00;1.00;;;;;;;;5006204;28;8892;-84
2021/05/31 14:12:38;;;;;;;;;3.80;2.40;;;;;;;;5003992;28;8870;-80
2021/05/31 14:15:07;;;;;;;;;1.40;1.40;;;;;;;;5006357;28;9061;-79
2021/05/31 14:17:35;;;;;;;;;1.60;1.60;;;;;;;;5005908;28;8992;-79
2021/05/31 14:20:03;;;;;;;;;1.80;1.80;;;;;;;;5005618;28;8876;-81
2021/05/31 14:22:30;;;;;;;;;2.00;2.00;;;;;;;;5000300;28;8855;-85
2021/05/31 14:24:57;;;;;;;;;2.60;2.60;;;;;;;;5004888;28;8863;-83
2021/05/31 14:27:24;;;;;;;;;2.00;2.00;;;;;;;;5007379;28;8978;-84
2021/05/31 14:29:51;;;;;;;;;1.80;1.80;;;;;;;;5005356;28;8863;-85
2021/05/31 14:32:19;;;;;;;;;1.40;0.80;;;;;;;;5005661;28;8926;-82
2021/05/31 14:34:46;;;;;;;;;1.80;1.80;;;;;;;;5005931;28;8948;-79
2021/05/31 14:37:13;;;;;;;;;0.00;0.00;;;;;;;;5004333;28;8875;-85
2021/05/31 14:39:41;;;;;;;;;2.20;2.20;;;;;;;;4988781;28;8885;-82
2021/05/31 14:42:09;;;;;;;;;3.40;2.00;;;;;;;;5006903;28;8893;-84
2021/05/31 14:44:36;;;;;;;;;2.00;2.00;;;;;;;;5006719;28;8889;-83
2021/05/31 14:47:05;;;;;;;;;3.40;2.00;;;;;;;;5004251;28;9166;-84
2021/05/31 14:49:34;;;;;;;;;2.60;2.60;;;;;;;;5007546;28;9600;-81
2021/05/31 14:52:01;;;;;;;;;21.20;17.80;;;;;;;;5004898;28;8851;-84
2021/05/31 14:54:28;;;;;;;;;2.00;2.00;;;;;;;;4988044;28;8867;-79
2021/05/31 14:56:56;;;;;;;;;4.20;3.20;;;;;;;;5006249;28;8890;-88
2021/05/31 14:59:24;;;;;;;;;1.60;1.60;;;;;;;;5004920;28;8889;-81
2021/05/31 15:01:51;;;;;;;;;2.40;2.40;;;;;;;;5004352;28;9615;-85
2021/05/31 15:04:18;;;;;;;;;0.00;0.00;;;;;;;;5004181;28;8943;-82
2021/05/31 15:06:46;;;;;;;;;1.00;1.00;;;;;;;;5004361;28;8871;-85
2021/05/31 15:09:14;;;;;;;;;1.80;1.80;;;;;;;;5005066;28;8925;-82